sensor_id;sensor_type;location;lat;lon;timestamp;P1;durP1;ratioP1;P2;durP2;ratioP2
7108;SDS011;29079;41.930;25.558;2023-08-21T00:02:29;8.48;;;5.70;;
7108;SDS011;29079;41.930;25.558;2023-08-21T00:05:17;8.45;;;5.40;;
7108;SDS011;29079;41.930;25.558;2023-08-21T00:08:05;8.68;;;5.47;;
7108;SDS011;29079;41.930;25.558;2023-08-21T00:10:53;6.38;;;5.50;;
7108;SDS011;29079;41.930;25.558;2023-08-21T00:13:40;11.30;;;6.43;;
7108;SDS011;29079;41.930;25.558;2023-08-21T00:16:32;8.82;;;5.70;;
7108;SDS011;29079;41.930;25.558;2023-08-21T00:19:21;6.30;;;4.90;;
7108;SDS011;29079;41.930;25.558;2023-08-21T00:22:08;6.63;;;4.95;;
7108;SDS011;29079;41.930;25.558;2023-08-21T00:24:56;7.53;;;5.57;;
7108;SDS011;29079;41.930;25.558;2023-08-21T00:27:44;6.50;;;5.75;;
7108;SDS011;29079;41.930;25.558;2023-08-21T00:30:32;8.63;;;5.90;;
7108;SDS011;29079;41.930;25.558;2023-08-21T00:33:21;7.07;;;5.65;;
7108;SDS011;29079;41.930;25.558;2023-08-21T00:36:09;8.63;;;5.38;;
7108;SDS011;29079;41.930;25.558;2023-08-21T00:38:57;7.82;;;5.68;;
7108;SDS011;29079;41.930;25.558;2023-08-21T00:41:44;6.22;;;5.55;;
7108;SDS011;29079;41.930;25.558;2023-08-21T00:44:32;13.35;;;6.47;;
7108;SDS011;29079;41.930;25.558;2023-08-21T00:47:20;10.23;;;5.80;;
7108;SDS011;29079;41.930;25.558;2023-08-21T00:50:09;8.00;;;6.00;;
7108;SDS011;29079;41.930;25.558;2023-08-21T00:52:58;9.07;;;6.15;;
7108;SDS011;29079;41.930;25.558;2023-08-21T00:55:46;8.00;;;6.07;;
7108;SDS011;29079;41.930;25.558;2023-08-21T00:58:34;10.38;;;5.88;;
7108;SDS011;29079;41.930;25.558;2023-08-21T01:01:22;8.07;;;6.00;;
7108;SDS011;29079;41.930;25.558;2023-08-21T01:04:12;6.32;;;5.72;;
7108;SDS011;29079;41.930;25.558;2023-08-21T01:07:01;6.50;;;5.45;;
7108;SDS011;29079;41.930;25.558;2023-08-21T01:09:53;9.48;;;5.13;;
7108;SDS011;29079;41.930;25.558;2023-08-21T01:12:48;7.50;;;6.60;;
7108;SDS011;29079;41.930;25.558;2023-08-21T01:15:42;8.35;;;6.97;;
7108;SDS011;29079;41.930;25.558;2023-08-21T01:18:33;8.40;;;6.88;;
7108;SDS011;29079;41.930;25.558;2023-08-21T01:21:21;7.80;;;5.93;;
7108;SDS011;29079;41.930;25.558;2023-08-21T01:24:10;8.25;;;6.80;;
7108;SDS011;29079;41.930;25.558;2023-08-21T01:26:58;7.55;;;6.75;;
7108;SDS011;29079;41.930;25.558;2023-08-21T01:29:46;10.18;;;7.28;;
7108;SDS011;29079;41.930;25.558;2023-08-21T01:32:37;8.07;;;7.00;;
7108;SDS011;29079;41.930;25.558;2023-08-21T01:35:29;8.90;;;6.88;;
7108;SDS011;29079;41.930;25.558;2023-08-21T01:38:18;10.90;;;8.13;;
7108;SDS011;29079;41.930;25.558;2023-08-21T01:41:07;13.82;;;8.70;;
7108;SDS011;29079;41.930;25.558;2023-08-21T01:43:55;9.52;;;7.40;;
7108;SDS011;29079;41.930;25.558;2023-08-21T01:46:43;11.45;;;8.10;;
7108;SDS011;29079;41.930;25.558;2023-08-21T01:49:31;12.68;;;7.75;;
7108;SDS011;29079;41.930;25.558;2023-08-21T01:52:19;14.40;;;8.07;;
7108;SDS011;29079;41.930;25.558;2023-08-21T01:55:07;12.63;;;8.70;;
7108;SDS011;29079;41.930;25.558;2023-08-21T01:57:56;11.38;;;8.90;;
7108;SDS011;29079;41.930;25.558;2023-08-21T02:00:45;11.32;;;8.98;;
7108;SDS011;29079;41.930;25.558;2023-08-21T02:03:33;12.57;;;8.25;;
7108;SDS011;29079;41.930;25.558;2023-08-21T02:06:22;8.23;;;7.43;;
7108;SDS011;29079;41.930;25.558;2023-08-21T02:09:10;10.90;;;8.68;;
7108;SDS011;29079;41.930;25.558;2023-08-21T02:11:57;10.82;;;8.75;;
7108;SDS011;29079;41.930;25.558;2023-08-21T02:14:47;9.25;;;8.35;;
7108;SDS011;29079;41.930;25.558;2023-08-21T02:17:34;11.60;;;8.68;;
7108;SDS011;29079;41.930;25.558;2023-08-21T02:20:23;12.27;;;8.25;;
7108;SDS011;29079;41.930;25.558;2023-08-21T02:23:11;10.90;;;8.43;;
7108;SDS011;29079;41.930;25.558;2023-08-21T02:25:59;11.45;;;8.32;;
7108;SDS011;29079;41.930;25.558;2023-08-21T02:28:47;10.90;;;8.80;;
7108;SDS011;29079;41.930;25.558;2023-08-21T02:31:36;10.90;;;8.55;;
7108;SDS011;29079;41.930;25.558;2023-08-21T02:34:24;10.75;;;7.97;;
7108;SDS011;29079;41.930;25.558;2023-08-21T02:37:12;14.40;;;8.10;;
7108;SDS011;29079;41.930;25.558;2023-08-21T02:40:00;11.90;;;8.27;;
7108;SDS011;29079;41.930;25.558;2023-08-21T02:42:48;16.70;;;11.02;;
7108;SDS011;29079;41.930;25.558;2023-08-21T02:45:36;11.20;;;8.38;;
7108;SDS011;29079;41.930;25.558;2023-08-21T02:48:25;12.40;;;8.27;;
7108;SDS011;29079;41.930;25.558;2023-08-21T02:51:13;11.00;;;8.85;;
7108;SDS011;29079;41.930;25.558;2023-08-21T02:54:01;13.52;;;8.93;;
7108;SDS011;29079;41.930;25.558;2023-08-21T02:56:48;14.90;;;7.97;;
7108;SDS011;29079;41.930;25.558;2023-08-21T02:59:36;12.30;;;8.30;;
7108;SDS011;29079;41.930;25.558;2023-08-21T03:02:24;8.43;;;7.03;;
7108;SDS011;29079;41.930;25.558;2023-08-21T03:05:13;12.57;;;8.18;;
7108;SDS011;29079;41.930;25.558;2023-08-21T03:08:02;11.15;;;8.05;;
7108;SDS011;29079;41.930;25.558;2023-08-21T03:10:49;9.55;;;7.80;;
7108;SDS011;29079;41.930;25.558;2023-08-21T03:13:37;9.13;;;7.95;;
7108;SDS011;29079;41.930;25.558;2023-08-21T03:16:25;9.02;;;8.13;;
7108;SDS011;29079;41.930;25.558;2023-08-21T03:19:13;9.23;;;8.27;;
7108;SDS011;29079;41.930;25.558;2023-08-21T03:22:02;10.60;;;7.88;;
7108;SDS011;29079;41.930;25.558;2023-08-21T03:24:50;11.00;;;8.25;;
7108;SDS011;29079;41.930;25.558;2023-08-21T03:27:38;9.50;;;8.05;;
7108;SDS011;29079;41.930;25.558;2023-08-21T03:30:26;12.25;;;7.68;;
7108;SDS011;29079;41.930;25.558;2023-08-21T03:33:14;12.93;;;8.52;;
7108;SDS011;29079;41.930;25.558;2023-08-21T03:36:01;11.45;;;7.70;;
7108;SDS011;29079;41.930;25.558;2023-08-21T03:38:51;10.23;;;7.55;;
7108;SDS011;29079;41.930;25.558;2023-08-21T03:41:39;11.45;;;8.18;;
7108;SDS011;29079;41.930;25.558;2023-08-21T03:44:26;11.82;;;7.38;;
7108;SDS011;29079;41.930;25.558;2023-08-21T03:47:14;14.93;;;8.15;;
7108;SDS011;29079;41.930;25.558;2023-08-21T03:50:02;10.45;;;7.97;;
7108;SDS011;29079;41.930;25.558;2023-08-21T03:52:50;13.90;;;7.95;;
7108;SDS011;29079;41.930;25.558;2023-08-21T03:55:39;12.27;;;8.10;;
7108;SDS011;29079;41.930;25.558;2023-08-21T03:58:27;8.85;;;7.88;;
7108;SDS011;29079;41.930;25.558;2023-08-21T04:01:15;11.05;;;8.18;;
7108;SDS011;29079;41.930;25.558;2023-08-21T04:04:03;10.10;;;7.75;;
7108;SDS011;29079;41.930;25.558;2023-08-21T04:06:51;9.48;;;8.40;;
7108;SDS011;29079;41.930;25.558;2023-08-21T04:09:39;16.27;;;8.13;;
7108;SDS011;29079;41.930;25.558;2023-08-21T04:12:28;12.13;;;9.32;;
7108;SDS011;29079;41.930;25.558;2023-08-21T04:15:15;8.75;;;7.82;;
7108;SDS011;29079;41.930;25.558;2023-08-21T04:18:03;11.40;;;9.18;;
7108;SDS011;29079;41.930;25.558;2023-08-21T04:20:52;13.82;;;7.88;;
7108;SDS011;29079;41.930;25.558;2023-08-21T04:23:39;12.10;;;9.32;;
7108;SDS011;29079;41.930;25.558;2023-08-21T04:26:27;12.15;;;8.52;;
7108;SDS011;29079;41.930;25.558;2023-08-21T04:29:16;11.27;;;9.18;;
7108;SDS011;29079;41.930;25.558;2023-08-21T04:32:05;14.73;;;8.63;;
7108;SDS011;29079;41.930;25.558;2023-08-21T04:34:53;14.60;;;8.50;;
7108;SDS011;29079;41.930;25.558;2023-08-21T04:37:42;12.13;;;8.13;;
7108;SDS011;29079;41.930;25.558;2023-08-21T04:40:31;9.45;;;7.80;;
7108;SDS011;29079;41.930;25.558;2023-08-21T04:43:18;15.05;;;8.63;;
7108;SDS011;29079;41.930;25.558;2023-08-21T04:46:08;35.28;;;10.70;;
7108;SDS011;29079;41.930;25.558;2023-08-21T04:48:55;10.77;;;8.77;;
7108;SDS011;29079;41.930;25.558;2023-08-21T04:51:43;30.85;;;10.30;;
7108;SDS011;29079;41.930;25.558;2023-08-21T04:54:31;9.18;;;8.23;;
7108;SDS011;29079;41.930;25.558;2023-08-21T04:57:19;15.25;;;8.70;;
7108;SDS011;29079;41.930;25.558;2023-08-21T05:00:08;18.52;;;10.10;;
7108;SDS011;29079;41.930;25.558;2023-08-21T05:02:58;14.50;;;7.95;;
7108;SDS011;29079;41.930;25.558;2023-08-21T05:05:51;10.55;;;8.63;;
7108;SDS011;29079;41.930;25.558;2023-08-21T05:08:40;12.63;;;8.40;;
7108;SDS011;29079;41.930;25.558;2023-08-21T05:11:28;12.48;;;7.63;;
7108;SDS011;29079;41.930;25.558;2023-08-21T05:14:15;13.73;;;8.90;;
7108;SDS011;29079;41.930;25.558;2023-08-21T05:17:04;22.33;;;9.43;;
7108;SDS011;29079;41.930;25.558;2023-08-21T05:19:54;13.10;;;8.82;;
7108;SDS011;29079;41.930;25.558;2023-08-21T05:22:41;15.32;;;7.93;;
7108;SDS011;29079;41.930;25.558;2023-08-21T05:25:31;23.38;;;8.15;;
7108;SDS011;29079;41.930;25.558;2023-08-21T05:28:19;23.15;;;10.25;;
7108;SDS011;29079;41.930;25.558;2023-08-21T05:31:07;8.90;;;8.00;;
7108;SDS011;29079;41.930;25.558;2023-08-21T05:33:55;10.90;;;8.02;;
7108;SDS011;29079;41.930;25.558;2023-08-21T05:36:44;8.52;;;7.45;;
7108;SDS011;29079;41.930;25.558;2023-08-21T05:39:32;12.95;;;7.90;;
7108;SDS011;29079;41.930;25.558;2023-08-21T05:42:20;14.35;;;7.90;;
7108;SDS011;29079;41.930;25.558;2023-08-21T05:45:08;11.63;;;7.43;;
7108;SDS011;29079;41.930;25.558;2023-08-21T05:47:56;12.05;;;8.35;;
7108;SDS011;29079;41.930;25.558;2023-08-21T05:50:44;12.52;;;8.02;;
7108;SDS011;29079;41.930;25.558;2023-08-21T05:53:33;10.52;;;7.70;;
7108;SDS011;29079;41.930;25.558;2023-08-21T05:56:21;9.68;;;7.82;;
7108;SDS011;29079;41.930;25.558;2023-08-21T05:59:10;14.05;;;7.65;;
7108;SDS011;29079;41.930;25.558;2023-08-21T06:01:58;15.65;;;8.85;;
7108;SDS011;29079;41.930;25.558;2023-08-21T06:04:46;17.73;;;8.40;;
7108;SDS011;29079;41.930;25.558;2023-08-21T06:07:34;16.75;;;9.30;;
7108;SDS011;29079;41.930;25.558;2023-08-21T06:10:23;17.27;;;8.80;;
7108;SDS011;29079;41.930;25.558;2023-08-21T06:13:11;14.32;;;8.38;;
7108;SDS011;29079;41.930;25.558;2023-08-21T06:15:58;12.10;;;7.88;;
7108;SDS011;29079;41.930;25.558;2023-08-21T06:18:46;11.27;;;7.97;;
7108;SDS011;29079;41.930;25.558;2023-08-21T06:21:34;12.43;;;7.70;;
7108;SDS011;29079;41.930;25.558;2023-08-21T06:24:22;8.30;;;7.15;;
7108;SDS011;29079;41.930;25.558;2023-08-21T06:27:11;12.52;;;7.85;;
7108;SDS011;29079;41.930;25.558;2023-08-21T06:29:59;10.05;;;8.27;;
7108;SDS011;29079;41.930;25.558;2023-08-21T06:32:47;11.55;;;7.57;;
7108;SDS011;29079;41.930;25.558;2023-08-21T06:35:35;10.00;;;7.63;;
7108;SDS011;29079;41.930;25.558;2023-08-21T06:38:23;10.27;;;7.63;;
7108;SDS011;29079;41.930;25.558;2023-08-21T06:41:11;13.25;;;7.10;;
7108;SDS011;29079;41.930;25.558;2023-08-21T06:44:00;11.10;;;6.57;;
7108;SDS011;29079;41.930;25.558;2023-08-21T06:46:48;10.57;;;6.93;;
7108;SDS011;29079;41.930;25.558;2023-08-21T06:49:36;8.77;;;6.65;;
7108;SDS011;29079;41.930;25.558;2023-08-21T06:52:23;9.00;;;7.05;;
7108;SDS011;29079;41.930;25.558;2023-08-21T06:55:11;9.68;;;7.43;;
7108;SDS011;29079;41.930;25.558;2023-08-21T06:57:59;8.55;;;6.47;;
7108;SDS011;29079;41.930;25.558;2023-08-21T07:00:48;8.23;;;6.55;;
7108;SDS011;29079;41.930;25.558;2023-08-21T07:03:36;12.45;;;7.50;;
7108;SDS011;29079;41.930;25.558;2023-08-21T07:06:24;11.48;;;7.00;;
7108;SDS011;29079;41.930;25.558;2023-08-21T07:09:12;10.60;;;7.18;;
7108;SDS011;29079;41.930;25.558;2023-08-21T07:11:59;13.32;;;8.13;;
7108;SDS011;29079;41.930;25.558;2023-08-21T07:14:48;11.23;;;6.72;;
7108;SDS011;29079;41.930;25.558;2023-08-21T07:17:37;12.30;;;7.55;;
7108;SDS011;29079;41.930;25.558;2023-08-21T07:20:25;11.88;;;7.40;;
7108;SDS011;29079;41.930;25.558;2023-08-21T07:23:13;10.07;;;7.60;;
7108;SDS011;29079;41.930;25.558;2023-08-21T07:26:00;15.18;;;7.55;;
7108;SDS011;29079;41.930;25.558;2023-08-21T07:28:50;8.55;;;6.85;;
7108;SDS011;29079;41.930;25.558;2023-08-21T07:31:39;10.93;;;7.25;;
7108;SDS011;29079;41.930;25.558;2023-08-21T07:34:28;9.15;;;6.13;;
7108;SDS011;29079;41.930;25.558;2023-08-21T07:37:16;19.40;;;6.75;;
7108;SDS011;29079;41.930;25.558;2023-08-21T07:40:04;11.00;;;7.65;;
7108;SDS011;29079;41.930;25.558;2023-08-21T07:42:53;7.97;;;6.63;;
7108;SDS011;29079;41.930;25.558;2023-08-21T07:45:40;10.55;;;7.57;;
7108;SDS011;29079;41.930;25.558;2023-08-21T07:48:28;14.55;;;8.40;;
7108;SDS011;29079;41.930;25.558;2023-08-21T07:51:17;11.07;;;7.28;;
7108;SDS011;29079;41.930;25.558;2023-08-21T07:54:05;11.30;;;8.40;;
7108;SDS011;29079;41.930;25.558;2023-08-21T07:56:53;13.07;;;8.38;;
7108;SDS011;29079;41.930;25.558;2023-08-21T07:59:40;12.52;;;8.45;;
7108;SDS011;29079;41.930;25.558;2023-08-21T08:02:28;14.05;;;7.72;;
7108;SDS011;29079;41.930;25.558;2023-08-21T08:05:16;14.93;;;7.43;;
7108;SDS011;29079;41.930;25.558;2023-08-21T08:08:06;15.80;;;11.07;;
7108;SDS011;29079;41.930;25.558;2023-08-21T08:10:53;13.77;;;9.05;;
7108;SDS011;29079;41.930;25.558;2023-08-21T08:13:41;8.77;;;7.00;;
7108;SDS011;29079;41.930;25.558;2023-08-21T08:16:29;12.43;;;7.28;;
7108;SDS011;29079;41.930;25.558;2023-08-21T08:19:16;14.98;;;7.38;;
7108;SDS011;29079;41.930;25.558;2023-08-21T08:22:04;13.00;;;7.57;;
7108;SDS011;29079;41.930;25.558;2023-08-21T08:24:53;14.45;;;8.98;;
7108;SDS011;29079;41.930;25.558;2023-08-21T08:27:42;17.02;;;7.35;;
7108;SDS011;29079;41.930;25.558;2023-08-21T08:30:31;11.05;;;7.10;;
7108;SDS011;29079;41.930;25.558;2023-08-21T08:33:18;10.60;;;7.15;;
7108;SDS011;29079;41.930;25.558;2023-08-21T08:36:06;15.52;;;7.47;;
7108;SDS011;29079;41.930;25.558;2023-08-21T08:38:54;12.10;;;6.18;;
7108;SDS011;29079;41.930;25.558;2023-08-21T08:41:47;7.50;;;6.13;;
7108;SDS011;29079;41.930;25.558;2023-08-21T08:44:38;9.35;;;6.28;;
7108;SDS011;29079;41.930;25.558;2023-08-21T08:47:27;8.27;;;5.90;;
7108;SDS011;29079;41.930;25.558;2023-08-21T08:50:15;12.30;;;6.82;;
7108;SDS011;29079;41.930;25.558;2023-08-21T08:53:04;11.00;;;6.55;;
7108;SDS011;29079;41.930;25.558;2023-08-21T08:56:02;13.95;;;7.47;;
7108;SDS011;29079;41.930;25.558;2023-08-21T08:58:52;20.00;;;8.30;;
7108;SDS011;29079;41.930;25.558;2023-08-21T09:01:39;19.73;;;6.80;;
7108;SDS011;29079;41.930;25.558;2023-08-21T09:04:27;10.57;;;5.05;;
7108;SDS011;29079;41.930;25.558;2023-08-21T09:07:16;11.68;;;6.35;;
7108;SDS011;29079;41.930;25.558;2023-08-21T09:10:05;11.30;;;5.90;;
7108;SDS011;29079;41.930;25.558;2023-08-21T09:13:01;8.52;;;5.43;;
7108;SDS011;29079;41.930;25.558;2023-08-21T09:15:58;8.10;;;6.03;;
7108;SDS011;29079;41.930;25.558;2023-08-21T09:18:47;6.25;;;5.03;;
7108;SDS011;29079;41.930;25.558;2023-08-21T09:21:35;7.63;;;5.15;;
7108;SDS011;29079;41.930;25.558;2023-08-21T09:24:22;5.93;;;4.43;;
7108;SDS011;29079;41.930;25.558;2023-08-21T09:27:15;5.13;;;4.45;;
7108;SDS011;29079;41.930;25.558;2023-08-21T09:30:03;8.25;;;4.70;;
7108;SDS011;29079;41.930;25.558;2023-08-21T09:32:54;5.97;;;4.68;;
7108;SDS011;29079;41.930;25.558;2023-08-21T09:35:43;6.95;;;4.63;;
7108;SDS011;29079;41.930;25.558;2023-08-21T09:38:33;7.95;;;5.13;;
7108;SDS011;29079;41.930;25.558;2023-08-21T09:41:22;10.20;;;4.85;;
7108;SDS011;29079;41.930;25.558;2023-08-21T09:44:11;6.45;;;3.67;;
7108;SDS011;29079;41.930;25.558;2023-08-21T09:46:59;10.27;;;3.55;;
7108;SDS011;29079;41.930;25.558;2023-08-21T09:49:49;5.60;;;3.65;;
7108;SDS011;29079;41.930;25.558;2023-08-21T09:52:37;6.95;;;4.18;;
7108;SDS011;29079;41.930;25.558;2023-08-21T09:55:25;7.50;;;3.90;;
7108;SDS011;29079;41.930;25.558;2023-08-21T09:58:15;7.68;;;3.75;;
7108;SDS011;29079;41.930;25.558;2023-08-21T10:01:04;8.85;;;3.50;;
7108;SDS011;29079;41.930;25.558;2023-08-21T10:04:00;7.70;;;3.95;;
7108;SDS011;29079;41.930;25.558;2023-08-21T10:06:51;6.90;;;4.07;;
7108;SDS011;29079;41.930;25.558;2023-08-21T10:09:42;5.55;;;3.58;;
7108;SDS011;29079;41.930;25.558;2023-08-21T10:12:31;9.27;;;3.88;;
7108;SDS011;29079;41.930;25.558;2023-08-21T10:15:18;7.40;;;3.95;;
7108;SDS011;29079;41.930;25.558;2023-08-21T10:18:19;6.28;;;3.95;;
7108;SDS011;29079;41.930;25.558;2023-08-21T10:21:10;6.50;;;4.13;;
7108;SDS011;29079;41.930;25.558;2023-08-21T10:24:00;7.88;;;4.15;;
7108;SDS011;29079;41.930;25.558;2023-08-21T10:26:48;8.85;;;4.95;;
7108;SDS011;29079;41.930;25.558;2023-08-21T10:29:38;5.20;;;4.55;;
7108;SDS011;29079;41.930;25.558;2023-08-21T10:32:26;5.78;;;4.55;;
7108;SDS011;29079;41.930;25.558;2023-08-21T10:35:14;9.65;;;4.38;;
7108;SDS011;29079;41.930;25.558;2023-08-21T10:38:07;8.40;;;4.53;;
7108;SDS011;29079;41.930;25.558;2023-08-21T10:41:06;9.88;;;4.60;;
7108;SDS011;29079;41.930;25.558;2023-08-21T10:43:54;7.85;;;4.30;;
7108;SDS011;29079;41.930;25.558;2023-08-21T10:46:51;7.13;;;4.85;;
7108;SDS011;29079;41.930;25.558;2023-08-21T10:49:40;9.60;;;5.00;;
7108;SDS011;29079;41.930;25.558;2023-08-21T10:52:28;5.55;;;4.47;;
7108;SDS011;29079;41.930;25.558;2023-08-21T10:55:17;11.95;;;4.47;;
7108;SDS011;29079;41.930;25.558;2023-08-21T10:58:07;5.55;;;4.82;;
7108;SDS011;29079;41.930;25.558;2023-08-21T11:00:58;8.15;;;4.75;;
7108;SDS011;29079;41.930;25.558;2023-08-21T11:03:46;8.05;;;4.93;;
7108;SDS011;29079;41.930;25.558;2023-08-21T11:06:34;5.55;;;5.03;;
7108;SDS011;29079;41.930;25.558;2023-08-21T11:09:22;5.88;;;4.43;;
7108;SDS011;29079;41.930;25.558;2023-08-21T11:12:10;6.15;;;4.45;;
7108;SDS011;29079;41.930;25.558;2023-08-21T11:15:00;5.38;;;4.43;;
7108;SDS011;29079;41.930;25.558;2023-08-21T11:17:53;11.13;;;4.65;;
7108;SDS011;29079;41.930;25.558;2023-08-21T11:20:41;5.72;;;4.40;;
7108;SDS011;29079;41.930;25.558;2023-08-21T11:23:31;8.25;;;4.30;;
7108;SDS011;29079;41.930;25.558;2023-08-21T11:26:21;11.63;;;4.88;;
7108;SDS011;29079;41.930;25.558;2023-08-21T11:29:09;6.68;;;4.00;;
7108;SDS011;29079;41.930;25.558;2023-08-21T11:31:58;8.02;;;4.32;;
7108;SDS011;29079;41.930;25.558;2023-08-21T11:34:51;5.65;;;4.18;;
7108;SDS011;29079;41.930;25.558;2023-08-21T11:37:43;10.48;;;4.57;;
7108;SDS011;29079;41.930;25.558;2023-08-21T11:40:34;8.13;;;4.93;;
7108;SDS011;29079;41.930;25.558;2023-08-21T11:43:22;12.32;;;5.13;;
7108;SDS011;29079;41.930;25.558;2023-08-21T11:46:10;21.05;;;14.65;;
7108;SDS011;29079;41.930;25.558;2023-08-21T11:49:01;20.88;;;15.10;;
7108;SDS011;29079;41.930;25.558;2023-08-21T11:51:49;11.18;;;7.18;;
7108;SDS011;29079;41.930;25.558;2023-08-21T11:54:38;11.88;;;8.38;;
7108;SDS011;29079;41.930;25.558;2023-08-21T11:57:30;20.23;;;12.93;;
7108;SDS011;29079;41.930;25.558;2023-08-21T12:00:26;9.85;;;6.50;;
7108;SDS011;29079;41.930;25.558;2023-08-21T12:03:17;8.85;;;5.75;;
7108;SDS011;29079;41.930;25.558;2023-08-21T12:06:07;7.10;;;6.07;;
7108;SDS011;29079;41.930;25.558;2023-08-21T12:08:56;9.23;;;6.35;;
7108;SDS011;29079;41.930;25.558;2023-08-21T12:11:44;12.27;;;5.22;;
7108;SDS011;29079;41.930;25.558;2023-08-21T12:14:31;9.35;;;5.25;;
7108;SDS011;29079;41.930;25.558;2023-08-21T12:17:19;9.90;;;4.95;;
7108;SDS011;29079;41.930;25.558;2023-08-21T12:20:07;10.30;;;5.82;;
7108;SDS011;29079;41.930;25.558;2023-08-21T12:22:59;10.27;;;6.40;;
7108;SDS011;29079;41.930;25.558;2023-08-21T12:25:47;8.35;;;5.32;;
7108;SDS011;29079;41.930;25.558;2023-08-21T12:28:35;9.13;;;5.45;;
7108;SDS011;29079;41.930;25.558;2023-08-21T12:31:22;7.85;;;5.70;;
7108;SDS011;29079;41.930;25.558;2023-08-21T12:34:10;7.30;;;6.18;;
7108;SDS011;29079;41.930;25.558;2023-08-21T12:36:58;6.25;;;5.57;;
7108;SDS011;29079;41.930;25.558;2023-08-21T12:39:47;8.60;;;5.93;;
7108;SDS011;29079;41.930;25.558;2023-08-21T12:42:35;7.95;;;5.25;;
7108;SDS011;29079;41.930;25.558;2023-08-21T12:45:23;6.28;;;5.78;;
7108;SDS011;29079;41.930;25.558;2023-08-21T12:48:11;10.55;;;6.45;;
7108;SDS011;29079;41.930;25.558;2023-08-21T12:50:58;8.55;;;5.88;;
7108;SDS011;29079;41.930;25.558;2023-08-21T12:53:46;11.60;;;6.93;;
7108;SDS011;29079;41.930;25.558;2023-08-21T12:56:36;10.65;;;6.70;;
7108;SDS011;29079;41.930;25.558;2023-08-21T12:59:25;7.88;;;6.88;;
7108;SDS011;29079;41.930;25.558;2023-08-21T13:02:13;10.85;;;7.47;;
7108;SDS011;29079;41.930;25.558;2023-08-21T13:05:01;10.15;;;8.35;;
7108;SDS011;29079;41.930;25.558;2023-08-21T13:07:49;10.85;;;8.73;;
7108;SDS011;29079;41.930;25.558;2023-08-21T13:10:37;26.25;;;19.73;;
7108;SDS011;29079;41.930;25.558;2023-08-21T13:13:26;32.80;;;25.85;;
7108;SDS011;29079;41.930;25.558;2023-08-21T13:16:14;32.88;;;21.35;;
7108;SDS011;29079;41.930;25.558;2023-08-21T13:19:02;14.98;;;12.65;;
7108;SDS011;29079;41.930;25.558;2023-08-21T13:21:49;17.85;;;11.93;;
7108;SDS011;29079;41.930;25.558;2023-08-21T13:24:37;17.38;;;9.95;;
7108;SDS011;29079;41.930;25.558;2023-08-21T13:27:25;15.60;;;11.60;;
7108;SDS011;29079;41.930;25.558;2023-08-21T13:30:15;12.45;;;11.23;;
7108;SDS011;29079;41.930;25.558;2023-08-21T13:33:04;12.07;;;10.77;;
7108;SDS011;29079;41.930;25.558;2023-08-21T13:35:53;19.45;;;14.00;;
7108;SDS011;29079;41.930;25.558;2023-08-21T13:38:40;16.58;;;14.80;;
7108;SDS011;29079;41.930;25.558;2023-08-21T13:41:28;18.27;;;13.57;;
7108;SDS011;29079;41.930;25.558;2023-08-21T13:44:16;17.05;;;15.40;;
7108;SDS011;29079;41.930;25.558;2023-08-21T13:47:07;20.05;;;16.13;;
7108;SDS011;29079;41.930;25.558;2023-08-21T13:49:54;18.33;;;14.73;;
7108;SDS011;29079;41.930;25.558;2023-08-21T13:52:42;18.35;;;16.08;;
7108;SDS011;29079;41.930;25.558;2023-08-21T13:55:30;17.52;;;15.23;;
7108;SDS011;29079;41.930;25.558;2023-08-21T13:58:18;16.02;;;14.32;;
7108;SDS011;29079;41.930;25.558;2023-08-21T14:01:06;16.35;;;14.45;;
7108;SDS011;29079;41.930;25.558;2023-08-21T14:03:55;19.02;;;15.18;;
7108;SDS011;29079;41.930;25.558;2023-08-21T14:06:44;16.00;;;13.95;;
7108;SDS011;29079;41.930;25.558;2023-08-21T14:09:31;27.20;;;17.77;;
7108;SDS011;29079;41.930;25.558;2023-08-21T14:12:19;25.95;;;22.15;;
7108;SDS011;29079;41.930;25.558;2023-08-21T14:15:07;19.83;;;15.57;;
7108;SDS011;29079;41.930;25.558;2023-08-21T14:17:56;18.17;;;15.02;;
7108;SDS011;29079;41.930;25.558;2023-08-21T14:20:45;18.63;;;15.38;;
7108;SDS011;29079;41.930;25.558;2023-08-21T14:23:33;17.58;;;13.65;;
7108;SDS011;29079;41.930;25.558;2023-08-21T14:26:21;19.58;;;14.57;;
7108;SDS011;29079;41.930;25.558;2023-08-21T14:29:08;20.05;;;17.65;;
7108;SDS011;29079;41.930;25.558;2023-08-21T14:31:57;22.13;;;18.45;;
7108;SDS011;29079;41.930;25.558;2023-08-21T14:34:46;24.08;;;19.83;;
7108;SDS011;29079;41.930;25.558;2023-08-21T14:37:35;18.58;;;14.93;;
7108;SDS011;29079;41.930;25.558;2023-08-21T14:40:23;24.10;;;13.70;;
7108;SDS011;29079;41.930;25.558;2023-08-21T14:43:12;14.07;;;12.65;;
7108;SDS011;29079;41.930;25.558;2023-08-21T14:46:00;15.00;;;12.43;;
7108;SDS011;29079;41.930;25.558;2023-08-21T14:48:48;18.27;;;12.50;;
7108;SDS011;29079;41.930;25.558;2023-08-21T14:51:36;15.82;;;11.07;;
7108;SDS011;29079;41.930;25.558;2023-08-21T14:54:25;13.30;;;10.95;;
7108;SDS011;29079;41.930;25.558;2023-08-21T14:57:13;14.68;;;11.95;;
7108;SDS011;29079;41.930;25.558;2023-08-21T15:00:01;16.30;;;14.23;;
7108;SDS011;29079;41.930;25.558;2023-08-21T15:02:49;17.77;;;12.27;;
7108;SDS011;29079;41.930;25.558;2023-08-21T15:05:37;12.35;;;10.68;;
7108;SDS011;29079;41.930;25.558;2023-08-21T15:08:25;12.48;;;11.18;;
7108;SDS011;29079;41.930;25.558;2023-08-21T15:11:14;17.05;;;11.57;;
7108;SDS011;29079;41.930;25.558;2023-08-21T15:14:02;14.05;;;11.65;;
7108;SDS011;29079;41.930;25.558;2023-08-21T15:16:51;12.07;;;10.70;;
7108;SDS011;29079;41.930;25.558;2023-08-21T15:19:57;17.63;;;12.68;;
7108;SDS011;29079;41.930;25.558;2023-08-21T15:22:45;17.98;;;14.05;;
7108;SDS011;29079;41.930;25.558;2023-08-21T15:25:33;14.80;;;12.05;;
7108;SDS011;29079;41.930;25.558;2023-08-21T15:28:22;21.27;;;15.30;;
7108;SDS011;29079;41.930;25.558;2023-08-21T15:31:10;19.45;;;13.65;;
7108;SDS011;29079;41.930;25.558;2023-08-21T15:33:58;22.10;;;18.60;;
7108;SDS011;29079;41.930;25.558;2023-08-21T15:36:47;18.92;;;16.70;;
7108;SDS011;29079;41.930;25.558;2023-08-21T15:39:35;15.57;;;13.27;;
7108;SDS011;29079;41.930;25.558;2023-08-21T15:42:22;18.70;;;13.27;;
7108;SDS011;29079;41.930;25.558;2023-08-21T15:45:11;13.90;;;12.50;;
7108;SDS011;29079;41.930;25.558;2023-08-21T15:47:59;15.40;;;11.80;;
7108;SDS011;29079;41.930;25.558;2023-08-21T15:50:47;12.70;;;11.38;;
7108;SDS011;29079;41.930;25.558;2023-08-21T15:53:35;16.02;;;11.65;;
7108;SDS011;29079;41.930;25.558;2023-08-21T15:56:22;14.07;;;11.45;;
7108;SDS011;29079;41.930;25.558;2023-08-21T15:59:10;14.38;;;11.25;;
7108;SDS011;29079;41.930;25.558;2023-08-21T16:01:59;13.45;;;11.60;;
7108;SDS011;29079;41.930;25.558;2023-08-21T16:04:47;17.00;;;12.70;;
7108;SDS011;29079;41.930;25.558;2023-08-21T16:07:35;13.70;;;11.57;;
7108;SDS011;29079;41.930;25.558;2023-08-21T16:10:22;13.05;;;11.75;;
7108;SDS011;29079;41.930;25.558;2023-08-21T16:13:10;13.82;;;12.38;;
7108;SDS011;29079;41.930;25.558;2023-08-21T16:15:58;17.80;;;12.00;;
7108;SDS011;29079;41.930;25.558;2023-08-21T16:18:47;17.70;;;12.60;;
7108;SDS011;29079;41.930;25.558;2023-08-21T16:21:35;18.20;;;12.63;;
7108;SDS011;29079;41.930;25.558;2023-08-21T16:24:23;17.98;;;11.77;;
7108;SDS011;29079;41.930;25.558;2023-08-21T16:27:11;18.35;;;11.20;;
7108;SDS011;29079;41.930;25.558;2023-08-21T16:29:58;18.42;;;10.68;;
7108;SDS011;29079;41.930;25.558;2023-08-21T16:32:46;11.93;;;10.00;;
7108;SDS011;29079;41.930;25.558;2023-08-21T16:35:35;14.32;;;9.10;;
7108;SDS011;29079;41.930;25.558;2023-08-21T16:38:24;11.95;;;9.27;;
7108;SDS011;29079;41.930;25.558;2023-08-21T16:41:12;15.43;;;10.30;;
7108;SDS011;29079;41.930;25.558;2023-08-21T16:44:00;9.05;;;8.15;;